East Sandwich, Massachusetts
Current Conditions -  °F | °C
As of 7:15 PM on Thursday 27 Nov 2014 (Local Time) from KFMH Reporting Station
Drizzle Drizzle  
Wind Chill: 36°   Ceiling: 2300
Heat Index: 36°   Visibility: 10mi
Dew Point: 34°   Wind: 3mph
Humidity: 93%   Direction: 340°NNW
Pressure: 29.98"   Gusts: NA
Location:  41.74°N, 70.43°W
Report Text: KFMH 280015Z AUTO 34003KT 10SM -DZ BKN023 OVC028 02/01 A2998 RMK AO2
Loading
Personal Weather Stations






























Interactive Weather Map New forecast layout! Learn more

10-Day Weather Forecast

Advertisements
Track Severe Weather on mobile